Terminal Aerodrome Forecast
Issued by NWS San Angelo, TX

Home | Current Version | Previous Version | Text Only | Print | Product List | Glossary On
Versions: 1 2 3 4 5 6 7 8 9 10 11 12 13 14 15 16 17 18 19 20 21 22 23
000
FTUS44 KSJT 070500
TAFABI
TAF
KABI 070537Z 0706/0806 16013KT P6SM BKN025
     FM070700 16013G20KT P6SM OVC015
      TEMPO 0711/0715 BKN008
     FM071900 16014G24KT P6SM BKN040=

USA.gov is the U.S. government's official web portal to all federal, state and local government web resources and services.